Time;durP1;ratioP1;P1;durP2;ratioP2;P2;SDS_P1;SDS_P2;PMS_P1;PMS_P2;Temp;Humidity;BMP_temperature;BMP_pressure;BME280_temperature;BME280_humidity;BME280_pressure;Samples;Min_cycle;Max_cycle;Signal;HPM_P1;HPM_P2
2023/05/09 00:00:31;;;;;;;38.85;22.13;;;14.00;99.90;;;;;;5051709;28;20037;-61
2023/05/09 00:02:56;;;;;;;41.72;24.23;;;14.00;99.90;;;;;;5051958;28;20048;-62
2023/05/09 00:05:22;;;;;;;41.88;23.33;;;14.00;99.90;;;;;;5052410;28;20039;-61
2023/05/09 00:07:48;;;;;;;36.78;23.23;;;13.90;99.90;;;;;;5050900;28;20040;-61
2023/05/09 00:10:13;;;;;;;38.42;22.85;;;13.90;99.90;;;;;;5052912;28;20120;-61
2023/05/09 00:12:40;;;;;;;43.45;25.10;;;13.90;99.90;;;;;;5052179;28;20049;-61
2023/05/09 00:15:07;;;;;;;41.28;21.88;;;13.90;99.90;;;;;;5050779;28;20497;-61
2023/05/09 00:17:35;;;;;;;33.50;20.52;;;13.90;99.90;;;;;;5051183;28;20049;-61
2023/05/09 00:20:04;;;;;;;38.60;21.33;;;13.90;99.90;;;;;;5051825;28;20049;-61
2023/05/09 00:22:29;;;;;;;37.55;21.42;;;13.90;99.90;;;;;;5050213;28;20051;-61
2023/05/09 00:24:55;;;;;;;34.72;21.63;;;13.90;99.90;;;;;;5051816;28;20128;-61
2023/05/09 00:27:20;;;;;;;45.95;24.95;;;13.90;99.90;;;;;;5050967;28;20545;-61
2023/05/09 00:29:46;;;;;;;37.83;23.27;;;13.90;99.90;;;;;;5051789;28;20394;-61
2023/05/09 00:32:12;;;;;;;42.53;24.20;;;13.90;99.90;;;;;;5052656;28;20453;-61
2023/05/09 00:34:37;;;;;;;40.60;24.17;;;13.90;99.90;;;;;;5051387;28;20104;-61
2023/05/09 00:37:03;;;;;;;38.78;22.90;;;13.90;99.90;;;;;;5050589;28;20501;-61
2023/05/09 00:39:29;;;;;;;42.72;24.35;;;13.90;99.90;;;;;;5051876;28;20085;-61
2023/05/09 00:41:55;;;;;;;27.85;17.58;;;13.90;99.90;;;;;;5052302;28;20037;-61
2023/05/09 00:44:21;;;;;;;29.83;19.38;;;13.90;99.90;;;;;;5051045;28;20052;-61
2023/05/09 00:46:46;;;;;;;38.88;24.75;;;13.90;99.90;;;;;;5051154;28;20045;-62
2023/05/09 00:49:12;;;;;;;38.67;24.17;;;13.90;99.90;;;;;;5050048;28;20394;-61
2023/05/09 00:51:39;;;;;;;49.55;26.17;;;13.90;99.90;;;;;;5051014;28;20171;-61
2023/05/09 00:54:05;;;;;;;40.20;24.70;;;13.90;99.90;;;;;;5052302;28;20093;-62
2023/05/09 00:56:31;;;;;;;42.33;25.80;;;13.90;99.90;;;;;;5050763;28;20115;-61
2023/05/09 00:58:56;;;;;;;38.88;23.08;;;13.90;99.90;;;;;;5052255;28;20032;-61
2023/05/09 01:01:22;;;;;;;38.42;22.25;;;13.90;99.90;;;;;;5050792;28;20059;-62
2023/05/09 01:03:49;;;;;;;37.33;21.55;;;13.90;99.90;;;;;;5050494;28;20508;-62
2023/05/09 01:06:31;;;;;;;52.38;26.60;;;14.00;99.90;;;;;;5050499;28;20056;-62
2023/05/09 01:09:43;;;;;;;39.78;23.90;;;14.00;99.90;;;;;;5050076;28;20037;-61
2023/05/09 01:12:15;;;;;;;41.00;22.27;;;14.00;99.90;;;;;;5035695;28;20057;-61
2023/05/09 01:14:53;;;;;;;40.90;24.85;;;13.90;99.90;;;;;;5050619;28;20503;-62
2023/05/09 01:17:38;;;;;;;40.97;24.20;;;14.00;99.90;;;;;;5033194;28;20052;-61
2023/05/09 01:20:19;;;;;;;36.25;23.73;;;14.00;99.90;;;;;;5051157;28;20094;-61
2023/05/09 01:22:51;;;;;;;41.83;26.27;;;13.90;99.90;;;;;;5050818;28;20091;-62
2023/05/09 01:25:35;;;;;;;42.90;26.13;;;14.00;99.90;;;;;;5049967;28;20406;-61
2023/05/09 01:28:17;;;;;;;44.13;26.02;;;14.00;99.90;;;;;;5050738;28;20044;-62
2023/05/09 01:30:46;;;;;;;47.05;26.10;;;14.00;99.90;;;;;;5051783;28;20048;-61
2023/05/09 01:33:17;;;;;;;47.97;27.98;;;14.00;99.90;;;;;;5050837;28;20041;-61
2023/05/09 01:35:48;;;;;;;48.63;27.45;;;14.00;99.90;;;;;;5050591;28;20374;-62
2023/05/09 01:38:18;;;;;;;42.47;24.90;;;14.00;99.90;;;;;;5050332;28;20056;-61
2023/05/09 01:40:47;;;;;;;50.55;28.70;;;14.00;99.90;;;;;;5051109;28;20120;-62
2023/05/09 01:43:17;;;;;;;51.22;28.70;;;13.90;99.90;;;;;;5050486;28;20037;-61
2023/05/09 01:45:44;;;;;;;50.35;28.48;;;14.00;99.90;;;;;;5033072;28;20041;-61
2023/05/09 01:48:11;;;;;;;51.25;27.90;;;13.90;99.90;;;;;;5050296;28;20124;-62
2023/05/09 01:50:39;;;;;;;52.65;28.67;;;14.00;99.90;;;;;;5051521;28;20122;-62
2023/05/09 01:53:06;;;;;;;55.83;29.52;;;14.00;99.90;;;;;;5050793;28;20089;-61
2023/05/09 01:55:35;;;;;;;50.42;29.45;;;13.90;99.90;;;;;;5051189;28;20080;-62
2023/05/09 01:58:04;;;;;;;50.80;28.10;;;13.90;99.90;;;;;;5051770;28;20120;-62
2023/05/09 02:00:32;;;;;;;48.80;27.80;;;13.90;99.90;;;;;;5050435;28;20041;-61
2023/05/09 02:02:58;;;;;;;51.33;30.08;;;13.90;99.90;;;;;;5050409;28;20124;-62
2023/05/09 02:05:27;;;;;;;55.03;30.35;;;13.90;99.90;;;;;;5050877;28;20044;-62
2023/05/09 02:07:58;;;;;;;55.90;31.17;;;13.90;99.90;;;;;;5050957;28;20040;-61
2023/05/09 02:10:26;;;;;;;58.08;30.20;;;13.90;99.90;;;;;;5033298;28;20037;-61
2023/05/09 02:12:52;;;;;;;53.13;28.20;;;13.90;99.90;;;;;;5050144;28;20057;-61
2023/05/09 02:15:18;;;;;;;48.95;28.73;;;13.90;99.90;;;;;;5050755;28;20052;-62
2023/05/09 02:17:45;;;;;;;51.97;30.42;;;13.90;99.90;;;;;;5050228;28;20037;-61
2023/05/09 02:20:12;;;;;;;48.72;30.90;;;13.90;99.90;;;;;;5051643;28;20497;-61
2023/05/09 02:22:40;;;;;;;54.65;29.30;;;13.90;99.90;;;;;;5054253;28;20441;-62
2023/05/09 02:25:07;;;;;;;43.40;25.23;;;13.90;99.90;;;;;;5053643;28;20051;-61
2023/05/09 02:27:34;;;;;;;47.42;27.25;;;13.90;99.90;;;;;;5052675;28;20052;-61
2023/05/09 02:30:06;;;;;;;42.72;26.65;;;13.90;99.90;;;;;;5054885;28;20047;-62
2023/05/09 02:32:33;;;;;;;53.17;29.25;;;13.90;99.90;;;;;;5053153;28;20052;-62
2023/05/09 02:35:00;;;;;;;43.55;25.00;;;14.00;99.90;;;;;;5054172;28;20144;-62
2023/05/09 02:37:27;;;;;;;51.55;30.08;;;13.90;99.90;;;;;;5036651;28;20386;-61
2023/05/09 02:39:57;;;;;;;54.47;29.38;;;14.00;99.90;;;;;;5036774;28;20557;-62
2023/05/09 02:42:25;;;;;;;52.42;30.52;;;13.90;99.90;;;;;;5053461;28;20159;-61
2023/05/09 02:44:54;;;;;;;52.05;29.40;;;13.90;99.90;;;;;;5053465;28;20126;-61
2023/05/09 02:47:21;;;;;;;58.05;32.40;;;14.00;99.90;;;;;;5052983;28;20048;-62
2023/05/09 02:49:47;;;;;;;58.55;32.45;;;13.90;99.90;;;;;;5052516;28;20041;-62
2023/05/09 02:52:13;;;;;;;55.58;29.92;;;14.00;99.90;;;;;;5053099;28;20044;-61
2023/05/09 02:54:39;;;;;;;55.85;31.02;;;13.90;99.90;;;;;;5036150;28;20044;-61
2023/05/09 02:57:05;;;;;;;50.53;30.73;;;13.90;99.90;;;;;;5053796;28;20118;-61
2023/05/09 02:59:31;;;;;;;53.80;30.40;;;13.90;99.90;;;;;;5053843;28;20424;-61
2023/05/09 03:01:57;;;;;;;53.25;30.00;;;13.90;99.90;;;;;;5053147;28;20051;-62
2023/05/09 03:04:24;;;;;;;54.28;31.05;;;13.90;99.90;;;;;;5053209;28;20037;-62
2023/05/09 03:06:50;;;;;;;54.25;29.38;;;14.00;99.90;;;;;;5054264;28;20042;-61
2023/05/09 03:09:16;;;;;;;60.88;33.17;;;14.00;99.90;;;;;;5036034;28;20501;-61
2023/05/09 03:11:42;;;;;;;63.03;32.72;;;14.00;99.90;;;;;;5051851;28;20044;-61
2023/05/09 03:14:09;;;;;;;54.53;31.55;;;13.90;99.90;;;;;;5036074;28;20041;-61
2023/05/09 03:16:35;;;;;;;57.10;30.13;;;13.90;99.90;;;;;;5053509;28;20106;-61
2023/05/09 03:19:02;;;;;;;56.38;29.13;;;13.90;99.90;;;;;;5035365;28;20041;-62
2023/05/09 03:21:27;;;;;;;54.95;29.80;;;13.90;99.90;;;;;;5053491;28;20040;-62
2023/05/09 03:23:53;;;;;;;63.00;31.98;;;13.90;99.90;;;;;;5052022;28;20052;-61
2023/05/09 03:26:19;;;;;;;51.08;29.38;;;13.90;99.90;;;;;;5052512;28;20171;-61
2023/05/09 03:28:45;;;;;;;62.97;31.45;;;13.90;99.90;;;;;;5035901;28;20040;-61
2023/05/09 03:31:11;;;;;;;50.53;29.10;;;13.90;99.90;;;;;;5052279;28;20044;-61
2023/05/09 03:33:37;;;;;;;57.47;30.55;;;13.90;99.90;;;;;;5052236;28;20440;-61
2023/05/09 03:36:04;;;;;;;49.17;28.52;;;13.90;99.90;;;;;;5053626;28;20037;-61
2023/05/09 03:38:29;;;;;;;60.53;32.05;;;13.90;99.90;;;;;;5051114;28;20044;-61
2023/05/09 03:40:55;;;;;;;52.75;29.67;;;13.90;99.90;;;;;;5052250;28;20037;-61
2023/05/09 03:43:21;;;;;;;56.22;30.08;;;13.80;99.90;;;;;;5051771;28;20044;-61
2023/05/09 03:45:46;;;;;;;63.97;35.13;;;13.90;99.90;;;;;;5052672;28;20073;-61
2023/05/09 03:48:12;;;;;;;51.65;30.08;;;13.90;99.90;;;;;;5051927;28;20041;-61
2023/05/09 03:50:38;;;;;;;58.53;31.90;;;13.90;99.90;;;;;;5035116;28;20045;-61
2023/05/09 03:53:03;;;;;;;53.60;31.67;;;13.90;99.90;;;;;;5051391;28;20441;-61
2023/05/09 03:55:29;;;;;;;56.17;31.00;;;13.90;99.90;;;;;;5052842;28;20049;-61
2023/05/09 03:57:55;;;;;;;64.95;32.50;;;13.90;99.90;;;;;;5053242;28;20045;-61
2023/05/09 04:00:21;;;;;;;45.10;28.50;;;13.80;99.90;;;;;;5050738;28;20051;-61
2023/05/09 04:02:47;;;;;;;65.00;34.63;;;13.90;99.90;;;;;;5035415;28;20048;-61
2023/05/09 04:05:14;;;;;;;45.42;28.08;;;13.90;99.90;;;;;;5051396;28;20045;-61
2023/05/09 04:07:40;;;;;;;58.78;32.38;;;13.90;99.90;;;;;;5050826;28;20045;-61
2023/05/09 04:10:07;;;;;;;52.25;30.17;;;13.90;99.90;;;;;;5051493;28;20168;-62
2023/05/09 04:12:32;;;;;;;51.30;28.73;;;13.90;99.90;;;;;;5051103;28;20053;-61
2023/05/09 04:14:58;;;;;;;49.45;29.30;;;13.90;99.90;;;;;;5052439;28;20051;-61
2023/05/09 04:17:24;;;;;;;45.75;27.80;;;13.90;99.90;;;;;;5051151;28;20505;-61
2023/05/09 04:19:49;;;;;;;57.88;32.80;;;13.90;99.90;;;;;;5052777;28;20073;-61
2023/05/09 04:22:15;;;;;;;53.50;29.02;;;13.90;99.90;;;;;;5050680;28;20095;-61
2023/05/09 04:24:41;;;;;;;50.58;29.40;;;14.00;99.90;;;;;;5052541;28;20044;-61
2023/05/09 04:27:07;;;;;;;62.40;34.13;;;13.90;99.90;;;;;;5051073;28;20107;-62
2023/05/09 04:29:33;;;;;;;58.17;32.40;;;13.90;99.90;;;;;;5052185;28;20090;-61
2023/05/09 04:32:00;;;;;;;51.00;28.50;;;14.00;99.90;;;;;;5052841;28;20086;-61
2023/05/09 04:34:26;;;;;;;49.30;29.23;;;14.00;99.90;;;;;;5049992;28;20049;-61
2023/05/09 04:36:52;;;;;;;56.50;31.95;;;14.00;99.90;;;;;;5051272;28;20045;-61
2023/05/09 04:39:18;;;;;;;64.47;35.00;;;14.00;99.90;;;;;;5051159;28;20048;-61
2023/05/09 04:41:46;;;;;;;63.30;33.70;;;14.00;99.90;;;;;;5050085;28;20045;-61
2023/05/09 04:44:12;;;;;;;61.70;33.08;;;14.00;99.90;;;;;;5050970;28;20500;-61
2023/05/09 04:46:39;;;;;;;62.53;34.13;;;14.00;99.90;;;;;;5050746;28;20098;-61
2023/05/09 04:49:05;;;;;;;53.05;32.13;;;14.00;99.90;;;;;;5051607;28;20097;-61
2023/05/09 04:51:30;;;;;;;49.35;29.92;;;14.10;99.90;;;;;;5050930;28;20486;-61
2023/05/09 04:53:56;;;;;;;68.65;36.00;;;14.00;99.90;;;;;;5051208;28;20040;-61
2023/05/09 04:56:22;;;;;;;64.53;34.90;;;14.10;99.90;;;;;;5050949;28;20045;-61
2023/05/09 04:58:48;;;;;;;77.30;38.22;;;14.10;99.90;;;;;;5051091;28;20056;-61
2023/05/09 05:01:13;;;;;;;59.33;33.22;;;14.10;99.90;;;;;;5052086;28;20048;-61
2023/05/09 05:03:39;;;;;;;71.38;37.53;;;14.10;99.90;;;;;;5051056;28;20227;-61
2023/05/09 05:06:05;;;;;;;63.72;35.90;;;14.10;99.90;;;;;;5050904;28;20425;-61
2023/05/09 05:08:31;;;;;;;73.53;37.92;;;14.10;99.90;;;;;;5050245;28;20091;-61
2023/05/09 05:10:56;;;;;;;65.20;35.67;;;14.10;99.90;;;;;;5049924;28;20045;-61
2023/05/09 05:13:22;;;;;;;53.08;32.72;;;14.10;99.90;;;;;;5051561;28;20051;-62
2023/05/09 05:15:48;;;;;;;66.90;36.25;;;14.10;99.90;;;;;;5051057;28;20124;-61
2023/05/09 05:18:14;;;;;;;70.40;35.97;;;14.20;99.90;;;;;;5051093;28;20131;-61
2023/05/09 05:20:40;;;;;;;77.68;39.22;;;14.20;99.90;;;;;;5033942;28;20484;-61
2023/05/09 05:23:07;;;;;;;67.47;37.03;;;14.20;99.90;;;;;;5051436;28;20063;-61
2023/05/09 05:25:32;;;;;;;71.35;37.08;;;14.20;99.90;;;;;;5047987;28;20444;-61
2023/05/09 05:27:58;;;;;;;68.78;38.53;;;14.20;99.90;;;;;;5051850;28;20033;-61
2023/05/09 05:30:24;;;;;;;70.18;38.67;;;14.20;99.90;;;;;;5051316;28;20037;-61
2023/05/09 05:32:50;;;;;;;62.15;36.67;;;14.20;99.90;;;;;;5050310;28;20044;-60
2023/05/09 05:35:15;;;;;;;73.45;39.35;;;14.20;99.90;;;;;;5041796;28;20072;-61
2023/05/09 05:37:42;;;;;;;69.78;37.22;;;14.20;99.90;;;;;;5030640;28;20045;-61
2023/05/09 05:40:08;;;;;;;61.60;35.30;;;14.20;99.90;;;;;;5048042;28;20053;-61
2023/05/09 05:42:34;;;;;;;73.88;40.97;;;14.30;99.90;;;;;;5049246;28;20052;-61
2023/05/09 05:45:03;;;;;;;62.25;34.30;;;14.30;99.90;;;;;;5049183;28;20051;-62
2023/05/09 05:47:36;;;;;;;72.20;39.80;;;14.40;99.90;;;;;;5031032;28;20144;-61
2023/05/09 05:50:05;;;;;;;66.75;38.78;;;14.40;99.90;;;;;;5048286;28;20095;-61
2023/05/09 05:52:31;;;;;;;63.00;34.95;;;14.50;99.90;;;;;;5062401;28;20087;-61
2023/05/09 05:54:57;;;;;;;78.50;40.08;;;14.60;99.90;;;;;;5066304;28;20045;-62
2023/05/09 05:57:22;;;;;;;65.07;36.28;;;14.60;99.90;;;;;;5052554;28;20075;-61
2023/05/09 05:59:49;;;;;;;60.85;35.95;;;14.70;99.90;;;;;;5034296;28;20037;-61
2023/05/09 06:02:17;;;;;;;59.83;35.80;;;14.70;99.90;;;;;;5051227;28;20047;-61
2023/05/09 06:04:43;;;;;;;62.67;35.55;;;14.70;99.90;;;;;;5050950;28;20045;-61
2023/05/09 06:07:09;;;;;;;69.60;40.03;;;14.80;99.90;;;;;;5051651;28;20094;-61
2023/05/09 06:09:35;;;;;;;62.80;37.05;;;14.80;99.90;;;;;;5052122;28;20068;-61
2023/05/09 06:12:01;;;;;;;76.10;40.53;;;14.80;99.90;;;;;;5052810;28;20092;-61
2023/05/09 06:14:26;;;;;;;65.47;40.33;;;14.80;99.90;;;;;;5033503;28;20045;-61
2023/05/09 06:16:52;;;;;;;73.93;40.15;;;14.80;99.90;;;;;;5052118;28;20060;-61
2023/05/09 06:19:18;;;;;;;60.80;37.60;;;14.90;99.90;;;;;;5050856;28;20061;-60
2023/05/09 06:21:44;;;;;;;76.60;42.15;;;14.90;99.90;;;;;;5049674;28;20486;-59
2023/05/09 06:24:10;;;;;;;69.00;40.90;;;14.90;99.90;;;;;;5050399;28;20060;-60
2023/05/09 06:26:36;;;;;;;69.18;40.72;;;15.00;99.90;;;;;;5050691;28;20041;-60
2023/05/09 06:29:02;;;;;;;67.38;37.90;;;15.00;99.90;;;;;;5033461;28;20037;-59
2023/05/09 06:31:28;;;;;;;82.80;44.50;;;15.10;99.90;;;;;;5051902;28;20041;-60
2023/05/09 06:33:54;;;;;;;66.28;38.60;;;15.10;99.90;;;;;;5033781;28;20535;-60
2023/05/09 06:36:19;;;;;;;65.40;40.90;;;15.20;99.90;;;;;;5050839;28;20044;-60
2023/05/09 06:38:45;;;;;;;64.22;39.65;;;15.10;99.90;;;;;;5050681;28;20045;-60
2023/05/09 06:41:11;;;;;;;74.47;42.58;;;15.20;99.90;;;;;;5048012;28;20068;-60
2023/05/09 06:43:36;;;;;;;71.88;40.85;;;15.20;99.90;;;;;;5038620;28;20127;-60
2023/05/09 06:46:02;;;;;;;64.82;38.95;;;15.20;99.90;;;;;;5049966;28;20084;-60
2023/05/09 06:48:28;;;;;;;61.70;36.63;;;15.20;99.90;;;;;;5049052;28;20045;-60
2023/05/09 06:50:54;;;;;;;70.65;39.67;;;15.30;99.90;;;;;;5051505;28;20041;-60
2023/05/09 06:53:20;;;;;;;71.55;41.63;;;15.30;99.90;;;;;;5047593;28;20036;-60
2023/05/09 06:55:45;;;;;;;66.05;40.25;;;15.40;99.90;;;;;;5033601;28;20041;-60
2023/05/09 06:58:11;;;;;;;64.82;41.42;;;15.40;99.90;;;;;;5054103;28;20120;-60
2023/05/09 07:00:42;;;;;;;63.17;38.58;;;15.50;99.90;;;;;;5054056;28;20037;-60
2023/05/09 07:03:09;;;;;;;72.10;41.72;;;15.50;99.90;;;;;;5053743;28;20398;-60
2023/05/09 07:05:34;;;;;;;62.83;38.65;;;15.50;99.90;;;;;;5052937;28;20044;-60
2023/05/09 07:08:00;;;;;;;72.75;43.28;;;15.60;99.90;;;;;;5052491;28;20044;-60
2023/05/09 07:10:26;;;;;;;66.03;41.78;;;15.70;99.90;;;;;;5052208;28;20041;-60
2023/05/09 07:12:52;;;;;;;66.25;40.90;;;15.70;99.90;;;;;;5052967;28;20089;-60
2023/05/09 07:15:17;;;;;;;68.72;38.88;;;15.70;99.90;;;;;;5052996;28;20398;-60
2023/05/09 07:17:43;;;;;;;64.45;40.40;;;15.80;99.90;;;;;;5051948;28;20041;-60
2023/05/09 07:20:09;;;;;;;310.60;103.65;;;15.90;99.90;;;;;;5052510;28;20103;-60
2023/05/09 07:22:35;;;;;;;79.35;42.22;;;16.00;99.90;;;;;;5053991;28;20041;-60
2023/05/09 07:25:00;;;;;;;62.55;39.30;;;16.00;99.90;;;;;;5035396;28;20132;-60
2023/05/09 07:27:26;;;;;;;68.97;41.17;;;16.10;99.90;;;;;;5052508;28;20033;-60
2023/05/09 07:29:52;;;;;;;53.35;34.25;;;16.10;99.90;;;;;;5052898;28;20098;-59
2023/05/09 07:32:18;;;;;;;60.40;37.78;;;16.10;99.90;;;;;;5052739;28;20047;-60
2023/05/09 07:34:44;;;;;;;59.83;39.55;;;16.10;99.90;;;;;;5052953;28;20385;-60
2023/05/09 07:37:09;;;;;;;55.55;35.97;;;16.10;99.90;;;;;;5052842;28;20037;-60
2023/05/09 07:39:35;;;;;;;60.25;38.03;;;16.10;99.90;;;;;;5053961;28;20041;-60
2023/05/09 07:42:01;;;;;;;65.70;39.90;;;16.20;99.90;;;;;;5053875;28;20398;-60
2023/05/09 07:44:26;;;;;;;63.50;37.65;;;16.20;99.90;;;;;;5052220;28;20166;-61
2023/05/09 07:46:54;;;;;;;59.03;39.08;;;16.20;99.90;;;;;;5052188;28;20040;-60
2023/05/09 07:49:23;;;;;;;66.47;41.13;;;16.20;99.90;;;;;;5052063;28;20045;-61
2023/05/09 07:51:48;;;;;;;58.00;37.30;;;16.30;99.90;;;;;;5051770;28;20480;-60
2023/05/09 07:54:14;;;;;;;61.30;38.75;;;16.20;99.90;;;;;;5035388;28;20118;-60
2023/05/09 07:56:40;;;;;;;59.53;36.28;;;16.20;99.90;;;;;;5051325;28;20041;-61
2023/05/09 07:59:05;;;;;;;60.10;38.40;;;16.10;99.90;;;;;;5034682;28;20045;-61
2023/05/09 08:01:31;;;;;;;61.15;38.35;;;16.10;99.90;;;;;;5052820;28;20037;-61
2023/05/09 08:03:56;;;;;;;59.53;36.78;;;16.00;99.90;;;;;;5053481;28;20037;-60
2023/05/09 08:06:22;;;;;;;55.45;36.63;;;16.00;99.90;;;;;;5051002;28;20052;-61
2023/05/09 08:08:48;;;;;;;58.65;37.30;;;16.10;99.90;;;;;;5051927;28;20033;-61
2023/05/09 08:11:14;;;;;;;55.88;37.15;;;16.00;99.90;;;;;;5051323;28;20057;-61
2023/05/09 08:13:39;;;;;;;55.67;35.00;;;16.00;99.90;;;;;;5052137;28;20049;-60
2023/05/09 08:16:05;;;;;;;58.03;36.97;;;16.00;99.90;;;;;;5051647;28;20037;-61
2023/05/09 08:18:31;;;;;;;60.47;38.63;;;16.00;99.90;;;;;;5050999;28;20053;-61
2023/05/09 08:20:58;;;;;;;62.83;39.15;;;16.00;99.90;;;;;;5052529;28;20397;-60
2023/05/09 08:23:25;;;;;;;55.78;35.00;;;16.00;99.90;;;;;;5052314;28;20116;-61
2023/05/09 08:25:54;;;;;;;63.28;39.53;;;16.00;99.90;;;;;;5051606;28;20064;-61
2023/05/09 08:28:22;;;;;;;59.45;37.78;;;16.10;99.90;;;;;;5050613;28;20044;-61
2023/05/09 08:30:51;;;;;;;58.38;36.63;;;16.00;99.90;;;;;;5035104;28;20051;-61
2023/05/09 08:33:17;;;;;;;57.05;36.88;;;16.00;99.90;;;;;;5052180;28;20119;-60
2023/05/09 08:35:43;;;;;;;52.30;33.53;;;16.00;99.90;;;;;;5051287;28;20131;-61
2023/05/09 08:38:08;;;;;;;48.75;33.45;;;16.00;99.90;;;;;;5052700;28;20607;-61
2023/05/09 08:40:36;;;;;;;50.95;33.92;;;16.10;99.90;;;;;;5050510;28;20094;-61
2023/05/09 08:43:04;;;;;;;51.63;32.80;;;16.10;99.90;;;;;;5051910;28;20040;-60
2023/05/09 08:45:33;;;;;;;44.60;32.33;;;16.10;99.90;;;;;;5030813;28;20046;-61
2023/05/09 08:48:02;;;;;;;40.30;29.00;;;16.10;99.90;;;;;;5050623;28;20045;-60
2023/05/09 08:50:28;;;;;;;47.90;31.00;;;16.20;99.90;;;;;;5034375;28;20485;-60
2023/05/09 08:52:54;;;;;;;43.70;27.80;;;16.30;99.90;;;;;;5034649;28;20041;-60
2023/05/09 08:55:20;;;;;;;41.50;25.83;;;16.30;99.90;;;;;;5049686;28;20044;-60
2023/05/09 08:57:46;;;;;;;39.30;24.90;;;16.30;99.90;;;;;;5052329;28;20041;-60
2023/05/09 09:00:13;;;;;;;38.50;24.13;;;16.40;99.90;;;;;;5050919;28;20382;-60
2023/05/09 09:02:43;;;;;;;36.63;25.50;;;16.40;99.90;;;;;;5049979;28;20047;-60
2023/05/09 09:05:09;;;;;;;34.13;25.40;;;16.50;99.90;;;;;;5051141;28;20041;-60
2023/05/09 09:07:37;;;;;;;32.22;22.50;;;16.60;99.90;;;;;;5051654;28;20504;-60
2023/05/09 09:10:03;;;;;;;32.95;23.15;;;16.60;99.90;;;;;;5033483;28;20555;-60
2023/05/09 09:12:30;;;;;;;34.55;22.65;;;16.70;99.90;;;;;;5033713;28;20061;-60
2023/05/09 09:15:02;;;;;;;29.10;20.25;;;16.80;99.90;;;;;;5050912;28;20045;-60
2023/05/09 09:17:31;;;;;;;32.05;19.98;;;16.90;99.90;;;;;;5051281;28;20442;-60
2023/05/09 09:20:00;;;;;;;28.48;20.42;;;16.90;99.90;;;;;;5034445;28;20040;-60
2023/05/09 09:22:32;;;;;;;25.33;17.33;;;16.90;99.90;;;;;;5051354;28;20508;-60
2023/05/09 09:25:00;;;;;;;24.13;15.90;;;17.00;99.90;;;;;;5050709;28;20484;-60
2023/05/09 09:27:26;;;;;;;24.08;15.23;;;17.00;99.90;;;;;;5051052;28;20441;-59
2023/05/09 09:29:51;;;;;;;23.00;16.15;;;17.00;99.90;;;;;;5050971;28;20140;-60
2023/05/09 09:32:18;;;;;;;23.73;16.08;;;17.10;99.90;;;;;;5053941;28;20036;-60
2023/05/09 09:34:48;;;;;;;26.33;17.98;;;17.10;99.90;;;;;;5056372;28;20098;-60
2023/05/09 09:37:23;;;;;;;46.72;22.40;;;17.20;99.90;;;;;;5053858;28;20041;-61
2023/05/09 09:39:55;;;;;;;26.05;15.57;;;17.30;99.90;;;;;;5054890;28;20047;-61
2023/05/09 09:42:22;;;;;;;22.60;14.88;;;17.30;99.90;;;;;;5037875;28;20048;-61
2023/05/09 09:45:02;;;;;;;20.95;15.98;;;17.40;99.90;;;;;;5055811;28;20071;-60
2023/05/09 09:47:31;;;;;;;23.15;16.38;;;17.40;99.90;;;;;;5053922;28;20040;-61
2023/05/09 09:49:57;;;;;;;21.30;15.25;;;17.30;99.90;;;;;;5055017;28;20464;-61
2023/05/09 09:52:26;;;;;;;22.58;16.17;;;17.30;99.90;;;;;;5053527;28;20072;-61
2023/05/09 09:54:55;;;;;;;25.60;16.25;;;17.40;99.90;;;;;;5054501;28;20537;-61
2023/05/09 09:57:38;;;;;;;23.08;16.90;;;17.50;99.90;;;;;;5053838;28;20086;-61
2023/05/09 10:00:05;;;;;;;24.17;15.77;;;17.60;99.90;;;;;;5054215;28;20048;-61
2023/05/09 10:02:31;;;;;;;24.33;17.10;;;17.60;99.90;;;;;;5053901;28;20077;-60
2023/05/09 10:05:06;;;;;;;25.25;17.83;;;17.60;99.90;;;;;;5053611;28;20471;-61
2023/05/09 10:07:35;;;;;;;24.67;16.67;;;17.60;99.90;;;;;;5053904;28;20044;-61
2023/05/09 10:10:05;;;;;;;24.70;17.90;;;17.60;99.90;;;;;;5054191;28;20040;-60
2023/05/09 10:12:36;;;;;;;22.88;16.02;;;17.60;99.90;;;;;;5052685;28;20063;-61
2023/05/09 10:15:07;;;;;;;39.58;34.70;;;17.60;99.90;;;;;;5054572;28;20473;-61
2023/05/09 10:17:33;;;;;;;25.77;18.58;;;17.60;99.90;;;;;;5054852;28;20033;-61
2023/05/09 10:20:03;;;;;;;22.73;17.30;;;17.50;99.90;;;;;;5053700;28;20029;-61
2023/05/09 10:22:31;;;;;;;28.20;18.23;;;17.40;99.90;;;;;;5053392;28;20041;-61
2023/05/09 10:25:02;;;;;;;29.92;16.05;;;17.40;99.90;;;;;;5054058;28;20355;-61
2023/05/09 10:27:31;;;;;;;19.90;15.73;;;17.40;99.90;;;;;;5035839;28;20083;-62
2023/05/09 10:30:07;;;;;;;29.52;18.52;;;17.40;99.90;;;;;;5053592;28;20080;-61
2023/05/09 10:32:52;;;;;;;26.08;17.23;;;17.40;99.90;;;;;;5054541;28;20477;-62
2023/05/09 10:35:20;;;;;;;26.80;16.75;;;17.50;99.90;;;;;;5053347;28;20032;-62
2023/05/09 10:37:47;;;;;;;28.02;17.25;;;17.50;99.90;;;;;;5054909;28;20033;-62
2023/05/09 10:40:14;;;;;;;22.58;16.60;;;17.50;99.90;;;;;;5053696;28;20041;-62
2023/05/09 10:42:43;;;;;;;21.92;16.80;;;17.50;99.90;;;;;;5054728;28;20068;-62
2023/05/09 10:45:12;;;;;;;21.85;16.63;;;17.50;99.90;;;;;;5053330;28;20033;-62
2023/05/09 10:47:43;;;;;;;22.95;16.23;;;17.50;99.90;;;;;;5052176;28;20040;-62
2023/05/09 10:50:11;;;;;;;25.98;15.93;;;17.60;99.90;;;;;;5052924;28;20048;-62
2023/05/09 10:53:12;;;;;;;23.67;16.50;;;17.50;99.90;;;;;;5036340;28;20047;-62
2023/05/09 10:55:59;;;;;;;24.88;16.52;;;17.50;99.90;;;;;;5052360;28;20055;-62
2023/05/09 10:58:28;;;;;;;21.38;16.35;;;17.50;99.90;;;;;;5036264;28;20083;-62
2023/05/09 11:00:58;;;;;;;21.13;15.05;;;17.40;99.90;;;;;;5053396;28;20544;-62
2023/05/09 11:03:26;;;;;;;26.50;17.33;;;17.40;99.90;;;;;;5052086;28;20059;-63
2023/05/09 11:05:56;;;;;;;19.60;16.02;;;17.50;99.90;;;;;;5053104;28;20394;-62
2023/05/09 11:08:28;;;;;;;23.30;16.58;;;17.50;99.90;;;;;;5052799;28;20037;-62
2023/05/09 11:10:56;;;;;;;25.95;18.63;;;17.50;99.90;;;;;;5033048;28;20053;-62
2023/05/09 11:13:23;;;;;;;25.27;19.52;;;17.40;99.90;;;;;;5047289;28;20171;-62
2023/05/09 11:15:52;;;;;;;22.35;18.50;;;17.40;99.90;;;;;;5035705;28;20045;-62
2023/05/09 11:18:18;;;;;;;24.50;18.23;;;17.40;99.90;;;;;;5035823;28;20045;-61
2023/05/09 11:20:47;;;;;;;24.92;18.90;;;17.30;99.90;;;;;;5051789;28;20041;-62
2023/05/09 11:23:20;;;;;;;25.05;17.80;;;17.30;99.90;;;;;;5034873;28;20040;-63
2023/05/09 11:25:48;;;;;;;23.13;17.45;;;17.30;99.90;;;;;;5052950;28;20138;-63
2023/05/09 11:28:38;;;;;;;23.65;18.55;;;17.20;99.90;;;;;;5052123;28;20045;-63
2023/05/09 11:31:22;;;;;;;21.15;16.65;;;17.10;99.90;;;;;;5030003;28;20045;-63
2023/05/09 11:33:53;;;;;;;25.50;18.10;;;17.10;99.90;;;;;;5030422;28;20486;-63
2023/05/09 11:36:28;;;;;;;23.33;18.33;;;17.10;99.90;;;;;;5050290;28;20115;-63
2023/05/09 11:39:05;;;;;;;25.48;19.73;;;17.10;99.90;;;;;;5050246;28;20084;-63
2023/05/09 11:41:38;;;;;;;23.63;17.30;;;17.20;99.90;;;;;;5050694;28;20110;-63
2023/05/09 11:44:20;;;;;;;21.08;17.20;;;17.10;99.90;;;;;;5049478;28;20053;-63
2023/05/09 11:46:48;;;;;;;22.92;16.98;;;17.10;99.90;;;;;;5056054;28;20074;-63
2023/05/09 11:49:15;;;;;;;24.48;17.83;;;17.10;99.90;;;;;;5048532;28;20033;-62
2023/05/09 11:51:41;;;;;;;26.02;19.73;;;17.20;99.90;;;;;;5049788;28;20041;-63
2023/05/09 11:54:09;;;;;;;29.50;20.60;;;17.20;99.90;;;;;;5049133;28;20482;-62
2023/05/09 11:56:37;;;;;;;27.50;19.63;;;17.20;99.90;;;;;;5048872;28;20052;-62
2023/05/09 11:59:02;;;;;;;26.73;18.55;;;17.20;99.90;;;;;;5050446;28;20049;-62
2023/05/09 12:01:31;;;;;;;27.60;20.27;;;17.10;99.90;;;;;;5030460;28;20049;-62
2023/05/09 12:03:58;;;;;;;25.92;19.08;;;17.10;99.90;;;;;;5035714;28;20044;-63
2023/05/09 12:06:25;;;;;;;26.77;18.83;;;17.10;99.90;;;;;;5047979;28;20052;-63
2023/05/09 12:08:52;;;;;;;28.15;19.52;;;17.00;99.90;;;;;;5049259;28;20094;-62
2023/05/09 12:11:18;;;;;;;27.25;19.58;;;17.00;99.90;;;;;;5048249;28;20053;-63
2023/05/09 12:13:48;;;;;;;26.65;19.05;;;16.90;99.90;;;;;;5048423;28;20086;-62
2023/05/09 12:16:15;;;;;;;27.65;21.90;;;16.90;99.90;;;;;;5048726;28;20041;-62
2023/05/09 12:18:59;;;;;;;27.48;20.10;;;17.00;99.90;;;;;;5048094;28;20084;-62
2023/05/09 12:21:25;;;;;;;26.70;19.23;;;17.00;99.90;;;;;;5048665;28;20044;-62
2023/05/09 12:23:55;;;;;;;28.67;20.92;;;16.90;99.90;;;;;;5032237;28;20535;-62
2023/05/09 12:26:22;;;;;;;27.55;20.60;;;16.90;99.90;;;;;;5047833;28;20545;-62
2023/05/09 12:28:48;;;;;;;28.85;22.50;;;16.90;99.90;;;;;;5049212;28;20037;-62